Time;durP1;ratioP1;P1;durP2;ratioP2;P2;SDS_P1;SDS_P2;PMS_P1;PMS_P2;Temp;Humidity;BMP_temperature;BMP_pressure;BME280_temperature;BME280_humidity;BME280_pressure;Samples;Min_cycle;Max_cycle;Signal;HPM_P1;HPM_P2
2021/05/20 00:00:57;;;;;;;33.15;27.17;;;;;;;;;;1472576;40;20441;-81
2021/05/20 00:01:59;;;;;;;33.10;27.60;;;;;;;;;;1477025;40;21228;-80
2021/05/20 00:03:01;;;;;;;37.75;27.65;;;;;;;;;;1470998;40;20434;-82
2021/05/20 00:04:02;;;;;;;35.65;27.63;;;;;;;;;;1470932;40;20424;-81
2021/05/20 00:05:05;;;;;;;30.77;26.48;;;;;;;;;;1468068;40;20436;-83
2021/05/20 00:06:07;;;;;;;33.80;27.88;;;;;;;;;;1463989;40;20860;-82
2021/05/20 00:07:09;;;;;;;36.90;28.70;;;;;;;;;;1465255;40;20460;-81
2021/05/20 00:08:10;;;;;;;37.22;29.50;;;;;;;;;;1472726;40;20411;-80
2021/05/20 00:09:12;;;;;;;35.97;28.20;;;;;;;;;;1470945;40;20432;-82
2021/05/20 00:10:16;;;;;;;35.03;28.02;;;;;;;;;;1467494;40;21638;-82
2021/05/20 00:11:17;;;;;;;36.17;29.60;;;;;;;;;;1472103;40;20477;-82
2021/05/20 00:12:19;;;;;;;33.45;28.17;;;;;;;;;;1478631;40;20397;-81
2021/05/20 00:13:21;;;;;;;35.13;28.15;;;;;;;;;;1477534;40;20538;-81
2021/05/20 00:14:25;;;;;;;34.58;28.02;;;;;;;;;;1471381;40;20422;-83
2021/05/20 00:15:27;;;;;;;34.20;29.52;;;;;;;;;;1472434;40;20410;-80
2021/05/20 00:16:28;;;;;;;35.85;29.65;;;;;;;;;;1470888;40;20422;-80
2021/05/20 00:17:30;;;;;;;34.42;28.88;;;;;;;;;;1468765;40;20498;-82
2021/05/20 00:18:31;;;;;;;34.28;29.23;;;;;;;;;;1468722;40;21528;-80
2021/05/20 00:19:33;;;;;;;38.90;29.67;;;;;;;;;;1471821;40;20430;-80
2021/05/20 00:20:34;;;;;;;45.88;31.58;;;;;;;;;;1471111;40;20418;-80
2021/05/20 00:21:36;;;;;;;38.25;30.02;;;;;;;;;;1471225;40;20426;-81
2021/05/20 00:22:39;;;;;;;37.92;29.80;;;;;;;;;;1470302;40;20804;-81
2021/05/20 00:23:40;;;;;;;33.55;28.92;;;;;;;;;;1472013;40;20418;-81
2021/05/20 00:24:42;;;;;;;35.30;28.77;;;;;;;;;;1470190;40;21076;-81
2021/05/20 00:25:44;;;;;;;35.15;28.13;;;;;;;;;;1471239;40;20547;-81
2021/05/20 00:26:45;;;;;;;36.15;29.98;;;;;;;;;;1477336;40;21295;-82
2021/05/20 00:27:47;;;;;;;36.35;30.10;;;;;;;;;;1472199;40;20483;-81
2021/05/20 00:28:48;;;;;;;39.67;30.20;;;;;;;;;;1470263;40;20560;-81
2021/05/20 00:29:50;;;;;;;42.22;31.17;;;;;;;;;;1472301;40;20581;-81
2021/05/20 00:30:52;;;;;;;35.35;30.20;;;;;;;;;;1470926;40;21267;-79
2021/05/20 00:31:53;;;;;;;32.05;28.33;;;;;;;;;;1467988;40;21964;-81
2021/05/20 00:32:55;;;;;;;36.80;30.27;;;;;;;;;;1471657;40;20430;-81
2021/05/20 00:33:56;;;;;;;40.10;30.90;;;;;;;;;;1469606;40;20438;-82
2021/05/20 00:34:58;;;;;;;34.28;30.25;;;;;;;;;;1474896;40;20426;-80
2021/05/20 00:36:00;;;;;;;38.10;31.73;;;;;;;;;;1482185;40;20420;-81
2021/05/20 00:37:01;;;;;;;38.30;31.15;;;;;;;;;;1483419;40;20551;-81
2021/05/20 00:38:03;;;;;;;35.92;30.42;;;;;;;;;;1481985;40;20421;-79
2021/05/20 00:39:05;;;;;;;39.08;32.00;;;;;;;;;;1470893;40;20802;-80
2021/05/20 00:40:07;;;;;;;45.33;33.42;;;;;;;;;;1472152;40;20417;-81
2021/05/20 00:41:09;;;;;;;37.10;31.35;;;;;;;;;;1477645;40;20413;-79
2021/05/20 00:42:11;;;;;;;37.42;32.00;;;;;;;;;;1477066;40;20520;-79
2021/05/20 00:43:13;;;;;;;38.30;31.75;;;;;;;;;;1476192;40;21115;-80
2021/05/20 00:44:15;;;;;;;40.20;32.92;;;;;;;;;;1474186;40;20477;-81
2021/05/20 00:45:16;;;;;;;39.83;33.20;;;;;;;;;;1473481;40;20552;-80
2021/05/20 00:46:18;;;;;;;38.08;32.05;;;;;;;;;;1472200;40;21097;-79
2021/05/20 00:47:21;;;;;;;40.20;33.28;;;;;;;;;;1477023;40;20448;-79
2021/05/20 00:48:23;;;;;;;37.55;32.55;;;;;;;;;;1471970;40;20410;-79
2021/05/20 00:49:24;;;;;;;38.00;32.28;;;;;;;;;;1464900;40;20430;-81
2021/05/20 00:50:26;;;;;;;38.47;32.67;;;;;;;;;;1467686;40;20523;-80
2021/05/20 00:51:28;;;;;;;38.80;33.42;;;;;;;;;;1476657;40;20550;-81
2021/05/20 00:52:29;;;;;;;37.45;30.77;;;;;;;;;;1470471;40;20548;-81
2021/05/20 00:53:31;;;;;;;40.55;31.70;;;;;;;;;;1470881;40;21859;-82
2021/05/20 00:54:33;;;;;;;38.63;33.40;;;;;;;;;;1477455;40;20716;-79
2021/05/20 00:55:35;;;;;;;38.20;33.13;;;;;;;;;;1476689;40;20393;-80
2021/05/20 00:56:39;;;;;;;37.25;32.25;;;;;;;;;;1476311;40;20511;-81
2021/05/20 00:57:41;;;;;;;38.03;30.10;;;;;;;;;;1470825;40;20414;-82
2021/05/20 00:58:44;;;;;;;37.97;32.90;;;;;;;;;;1464795;40;20672;-82
2021/05/20 00:59:47;;;;;;;36.30;31.48;;;;;;;;;;1463513;40;20441;-81
2021/05/20 01:00:54;;;;;;;39.30;33.10;;;;;;;;;;1467967;40;21266;-81
2021/05/20 01:01:56;;;;;;;41.97;32.03;;;;;;;;;;1467072;40;20528;-80
2021/05/20 01:02:57;;;;;;;34.80;30.95;;;;;;;;;;1471045;40;20422;-79
2021/05/20 01:03:59;;;;;;;36.53;32.08;;;;;;;;;;1476725;40;20722;-82
2021/05/20 01:05:02;;;;;;;36.95;31.00;;;;;;;;;;1471205;40;20517;-81
2021/05/20 01:06:04;;;;;;;42.70;32.90;;;;;;;;;;1472098;40;20434;-80
2021/05/20 01:07:06;;;;;;;37.80;33.22;;;;;;;;;;1470656;40;21057;-79
2021/05/20 01:08:08;;;;;;;37.83;31.15;;;;;;;;;;1472766;40;20539;-81
2021/05/20 01:09:10;;;;;;;40.13;33.65;;;;;;;;;;1468524;40;20443;-80
2021/05/20 01:10:12;;;;;;;38.50;33.42;;;;;;;;;;1469383;40;20737;-79
2021/05/20 01:11:14;;;;;;;39.37;33.23;;;;;;;;;;1477796;40;20550;-80
2021/05/20 01:12:16;;;;;;;41.47;34.47;;;;;;;;;;1471663;40;20497;-79
2021/05/20 01:13:17;;;;;;;37.00;31.95;;;;;;;;;;1468621;40;20471;-81
2021/05/20 01:14:19;;;;;;;41.75;34.75;;;;;;;;;;1468702;40;20511;-79
2021/05/20 01:15:27;;;;;;;39.38;32.85;;;;;;;;;;1472010;40;20456;-81
2021/05/20 01:16:29;;;;;;;39.55;32.45;;;;;;;;;;1472685;40;20458;-82
2021/05/20 01:17:30;;;;;;;38.63;32.95;;;;;;;;;;1477856;40;20527;-81
2021/05/20 01:18:32;;;;;;;37.38;32.50;;;;;;;;;;1476954;40;20670;-80
2021/05/20 01:19:38;;;;;;;36.90;30.88;;;;;;;;;;1471241;40;20415;-80
2021/05/20 01:20:41;;;;;;;35.75;31.75;;;;;;;;;;1471318;40;20391;-82
2021/05/20 01:21:44;;;;;;;39.78;34.35;;;;;;;;;;1476781;40;20678;-81
2021/05/20 01:22:45;;;;;;;41.70;35.03;;;;;;;;;;1476704;40;20733;-81
2021/05/20 01:23:47;;;;;;;39.78;33.47;;;;;;;;;;1477278;40;20393;-81
2021/05/20 01:24:48;;;;;;;41.70;35.22;;;;;;;;;;1469926;40;20461;-82
2021/05/20 01:25:50;;;;;;;42.35;34.60;;;;;;;;;;1466458;40;20410;-82
2021/05/20 01:26:53;;;;;;;41.47;35.05;;;;;;;;;;1464094;40;20450;-80
2021/05/20 01:28:01;;;;;;;44.10;36.43;;;;;;;;;;1468542;40;20531;-79
2021/05/20 01:29:07;;;;;;;45.97;35.78;;;;;;;;;;1477456;40;20443;-81
2021/05/20 01:30:11;;;;;;;40.85;34.80;;;;;;;;;;1470843;40;20496;-79
2021/05/20 01:31:12;;;;;;;44.97;36.40;;;;;;;;;;1471848;40;20428;-79
2021/05/20 01:32:14;;;;;;;47.50;36.92;;;;;;;;;;1470696;40;20444;-79
2021/05/20 01:33:16;;;;;;;50.53;38.47;;;;;;;;;;1471340;40;20497;-79
2021/05/20 01:34:18;;;;;;;48.17;38.88;;;;;;;;;;1468254;40;20423;-80
2021/05/20 01:35:19;;;;;;;47.78;38.38;;;;;;;;;;1471880;40;20513;-80
2021/05/20 01:36:28;;;;;;;49.00;39.13;;;;;;;;;;1471395;40;20577;-79
2021/05/20 01:37:29;;;;;;;44.95;38.22;;;;;;;;;;1467188;40;20585;-79
2021/05/20 01:39:42;;;;;;;50.75;38.33;;;;;;;;;;1473070;40;20494;-82
2021/05/20 01:40:49;;;;;;;40.42;35.13;;;;;;;;;;1476965;40;20436;-81
2021/05/20 01:41:51;;;;;;;42.20;35.55;;;;;;;;;;1476536;40;21902;-81
2021/05/20 01:42:53;;;;;;;43.03;35.38;;;;;;;;;;1477644;40;20547;-81
2021/05/20 01:43:55;;;;;;;41.83;35.88;;;;;;;;;;1477167;40;21029;-79
2021/05/20 01:44:56;;;;;;;40.35;35.80;;;;;;;;;;1476790;40;20408;-81
2021/05/20 01:45:59;;;;;;;49.53;38.28;;;;;;;;;;1477538;40;20813;-81
2021/05/20 01:47:01;;;;;;;49.83;39.42;;;;;;;;;;1477708;40;20408;-79
2021/05/20 01:48:03;;;;;;;45.22;37.85;;;;;;;;;;1477364;40;20475;-79
2021/05/20 01:49:09;;;;;;;40.78;35.38;;;;;;;;;;1467683;40;20427;-80
2021/05/20 01:50:12;;;;;;;29.63;24.90;;;;;;;;;;1469490;40;20438;-81
2021/05/20 01:51:19;;;;;;;26.17;21.67;;;;;;;;;;1477466;40;20412;-81
2021/05/20 01:52:21;;;;;;;23.10;19.83;;;;;;;;;;1477174;40;20395;-80
2021/05/20 01:53:23;;;;;;;19.60;17.50;;;;;;;;;;1473675;40;20445;-81
2021/05/20 01:54:24;;;;;;;18.75;16.85;;;;;;;;;;1473323;40;20418;-82
2021/05/20 01:55:26;;;;;;;18.45;16.23;;;;;;;;;;1478963;40;20439;-82
2021/05/20 01:56:30;;;;;;;16.85;15.15;;;;;;;;;;1471993;40;20432;-79
2021/05/20 01:57:32;;;;;;;15.73;14.13;;;;;;;;;;1472218;40;20513;-83
2021/05/20 01:58:34;;;;;;;14.50;13.00;;;;;;;;;;1473343;40;20458;-80
2021/05/20 01:59:36;;;;;;;14.57;13.15;;;;;;;;;;1469391;40;20429;-80
2021/05/20 02:00:38;;;;;;;15.98;14.32;;;;;;;;;;1472881;40;20426;-80
2021/05/20 02:01:43;;;;;;;16.52;14.80;;;;;;;;;;1472322;40;20420;-81
2021/05/20 02:02:45;;;;;;;18.50;16.38;;;;;;;;;;1473567;40;20402;-82
2021/05/20 02:03:46;;;;;;;17.40;15.55;;;;;;;;;;1473415;40;20399;-83
2021/05/20 02:04:48;;;;;;;17.83;15.68;;;;;;;;;;1468099;40;20607;-81
2021/05/20 02:05:50;;;;;;;17.08;15.25;;;;;;;;;;1468417;40;20450;-82
2021/05/20 02:06:52;;;;;;;18.33;16.38;;;;;;;;;;1471474;40;20402;-80
2021/05/20 02:07:53;;;;;;;17.33;15.55;;;;;;;;;;1477588;40;20396;-79
2021/05/20 02:08:55;;;;;;;20.88;16.23;;;;;;;;;;1467358;40;21049;-82
2021/05/20 02:09:56;;;;;;;18.73;16.02;;;;;;;;;;1463678;40;20482;-80
2021/05/20 02:10:59;;;;;;;26.25;16.60;;;;;;;;;;1472230;40;20482;-79
2021/05/20 02:12:00;;;;;;;18.13;16.07;;;;;;;;;;1477085;40;20638;-79
2021/05/20 02:13:02;;;;;;;17.00;15.23;;;;;;;;;;1470966;40;20420;-79
2021/05/20 02:14:04;;;;;;;17.67;15.75;;;;;;;;;;1466229;40;20570;-80
2021/05/20 02:15:06;;;;;;;16.80;15.15;;;;;;;;;;1472198;40;20420;-80
2021/05/20 02:16:08;;;;;;;14.27;12.73;;;;;;;;;;1477543;40;20502;-80
2021/05/20 02:17:10;;;;;;;14.82;13.30;;;;;;;;;;1477722;40;20428;-81
2021/05/20 02:18:12;;;;;;;13.77;12.48;;;;;;;;;;1477975;40;20456;-79
2021/05/20 02:19:13;;;;;;;13.57;12.18;;;;;;;;;;1471364;40;20506;-80
2021/05/20 02:20:15;;;;;;;14.88;13.45;;;;;;;;;;1473282;40;20753;-81
2021/05/20 02:21:17;;;;;;;14.95;13.48;;;;;;;;;;1471072;40;20410;-82
2021/05/20 02:22:19;;;;;;;13.60;12.20;;;;;;;;;;1468897;40;20420;-80
2021/05/20 02:23:21;;;;;;;13.80;12.40;;;;;;;;;;1471997;40;20407;-83
2021/05/20 02:24:22;;;;;;;14.52;13.07;;;;;;;;;;1468272;40;20526;-80
2021/05/20 02:25:24;;;;;;;15.50;13.80;;;;;;;;;;1466450;40;20441;-79
2021/05/20 02:26:26;;;;;;;13.95;12.60;;;;;;;;;;1470877;40;20422;-81
2021/05/20 02:27:28;;;;;;;15.20;13.57;;;;;;;;;;1472028;40;20488;-82
2021/05/20 02:28:30;;;;;;;13.45;12.15;;;;;;;;;;1468935;40;20446;-80
2021/05/20 02:29:31;;;;;;;13.75;12.55;;;;;;;;;;1468274;40;20472;-80
2021/05/20 02:30:33;;;;;;;15.00;13.48;;;;;;;;;;1472530;40;20430;-82
2021/05/20 02:31:35;;;;;;;16.05;14.55;;;;;;;;;;1477893;40;20421;-80
2021/05/20 02:32:37;;;;;;;15.50;14.10;;;;;;;;;;1467483;40;20517;-80
2021/05/20 02:33:38;;;;;;;15.82;14.38;;;;;;;;;;1460953;40;20406;-79
2021/05/20 02:34:40;;;;;;;14.73;13.40;;;;;;;;;;1468719;40;20544;-80
2021/05/20 02:35:42;;;;;;;14.48;13.23;;;;;;;;;;1477235;40;20465;-79
2021/05/20 02:36:43;;;;;;;15.15;13.75;;;;;;;;;;1478130;40;20444;-80
2021/05/20 02:37:47;;;;;;;14.23;12.93;;;;;;;;;;1471825;40;20444;-81
2021/05/20 02:38:49;;;;;;;15.47;13.93;;;;;;;;;;1472633;40;20533;-81
2021/05/20 02:39:50;;;;;;;13.87;12.57;;;;;;;;;;1477575;40;20585;-82
2021/05/20 02:40:52;;;;;;;13.68;12.48;;;;;;;;;;1471934;40;20438;-81
2021/05/20 02:41:54;;;;;;;14.20;12.95;;;;;;;;;;1472266;40;20418;-82
2021/05/20 02:42:55;;;;;;;12.75;11.65;;;;;;;;;;1472797;40;20575;-82
2021/05/20 02:43:57;;;;;;;13.40;12.07;;;;;;;;;;1469310;40;20553;-80
2021/05/20 02:44:58;;;;;;;13.65;12.32;;;;;;;;;;1472822;40;20413;-80
2021/05/20 02:46:01;;;;;;;16.17;14.45;;;;;;;;;;1472446;40;20740;-79
2021/05/20 02:47:03;;;;;;;20.92;15.63;;;;;;;;;;1472206;40;20438;-79
2021/05/20 02:48:05;;;;;;;38.90;17.33;;;;;;;;;;1471700;40;20434;-82
2021/05/20 02:49:06;;;;;;;83.03;22.90;;;;;;;;;;1473303;40;20419;-83
2021/05/20 02:50:08;;;;;;;88.45;21.80;;;;;;;;;;1472392;40;20441;-81
2021/05/20 02:51:10;;;;;;;27.10;19.85;;;;;;;;;;1464207;40;20521;-80
2021/05/20 02:52:12;;;;;;;23.55;19.38;;;;;;;;;;1467694;40;20451;-79
2021/05/20 02:53:14;;;;;;;23.67;19.65;;;;;;;;;;1478178;40;20428;-80
2021/05/20 02:54:15;;;;;;;23.03;19.20;;;;;;;;;;1477930;40;20956;-79
2021/05/20 02:55:20;;;;;;;33.50;22.90;;;;;;;;;;1471819;40;20431;-79
2021/05/20 02:56:22;;;;;;;26.80;21.77;;;;;;;;;;1471882;40;20525;-81
2021/05/20 02:57:24;;;;;;;24.90;21.35;;;;;;;;;;1478376;40;20478;-83
2021/05/20 02:58:26;;;;;;;52.40;26.60;;;;;;;;;;1478287;40;21097;-82
2021/05/20 02:59:29;;;;;;;89.63;30.67;;;;;;;;;;1477184;40;20860;-80
2021/05/20 03:00:36;;;;;;;158.93;39.75;;;;;;;;;;1478571;40;20435;-82
2021/05/20 03:01:46;;;;;;;158.95;40.38;;;;;;;;;;1476851;40;20427;-82
2021/05/20 03:02:50;;;;;;;165.25;45.00;;;;;;;;;;1475266;40;20435;-82
2021/05/20 03:03:52;;;;;;;267.95;59.17;;;;;;;;;;1476820;40;20426;-81
2021/05/20 03:04:54;;;;;;;385.67;71.32;;;;;;;;;;1483381;40;20412;-81
2021/05/20 03:05:58;;;;;;;283.85;61.42;;;;;;;;;;1478923;40;20489;-82
2021/05/20 03:07:00;;;;;;;320.42;59.58;;;;;;;;;;1472968;40;20392;-80
2021/05/20 03:08:02;;;;;;;154.70;46.17;;;;;;;;;;1472588;40;20794;-80
2021/05/20 03:09:07;;;;;;;235.25;55.00;;;;;;;;;;1477248;40;20407;-81
2021/05/20 03:10:09;;;;;;;355.77;69.15;;;;;;;;;;1479142;40;20414;-80
2021/05/20 03:11:10;;;;;;;279.58;57.50;;;;;;;;;;1480847;40;20421;-79
2021/05/20 03:12:12;;;;;;;614.85;94.53;;;;;;;;;;1479646;40;20409;-80
2021/05/20 03:13:14;;;;;;;417.50;77.57;;;;;;;;;;1479340;40;20472;-80
2021/05/20 03:14:15;;;;;;;221.77;49.90;;;;;;;;;;1468744;40;20494;-81
2021/05/20 03:15:17;;;;;;;101.78;38.88;;;;;;;;;;1464763;40;20448;-80
2021/05/20 03:16:19;;;;;;;76.20;35.53;;;;;;;;;;1472408;40;20435;-81
2021/05/20 03:17:21;;;;;;;103.25;39.45;;;;;;;;;;1471591;40;20430;-79
2021/05/20 03:18:22;;;;;;;99.00;35.42;;;;;;;;;;1467546;40;20441;-80
2021/05/20 03:19:24;;;;;;;90.93;36.25;;;;;;;;;;1463633;40;20418;-79
2021/05/20 03:20:26;;;;;;;99.63;39.90;;;;;;;;;;1460448;40;20420;-81
2021/05/20 03:21:27;;;;;;;152.55;44.55;;;;;;;;;;1464214;40;20438;-79
2021/05/20 03:22:29;;;;;;;120.80;39.72;;;;;;;;;;1472469;40;21207;-79
2021/05/20 03:23:31;;;;;;;192.38;52.42;;;;;;;;;;1467924;40;20446;-80
2021/05/20 03:24:32;;;;;;;154.52;48.45;;;;;;;;;;1464641;40;20596;-81
2021/05/20 03:25:35;;;;;;;218.45;50.10;;;;;;;;;;1473156;40;20426;-79
2021/05/20 03:26:37;;;;;;;288.52;55.78;;;;;;;;;;1476904;40;20420;-80
2021/05/20 03:27:38;;;;;;;281.35;62.65;;;;;;;;;;1471798;40;20420;-82
2021/05/20 03:28:41;;;;;;;343.38;66.97;;;;;;;;;;1469435;40;21156;-80
2021/05/20 03:29:42;;;;;;;213.80;58.75;;;;;;;;;;1466825;40;20419;-79
2021/05/20 03:30:44;;;;;;;297.88;68.90;;;;;;;;;;1471618;40;20438;-79
2021/05/20 03:31:46;;;;;;;237.98;60.85;;;;;;;;;;1472038;40;20491;-79
2021/05/20 03:32:47;;;;;;;190.20;54.88;;;;;;;;;;1472163;40;20419;-81
2021/05/20 03:33:49;;;;;;;269.30;65.75;;;;;;;;;;1476393;40;20510;-81
2021/05/20 03:34:51;;;;;;;286.77;63.75;;;;;;;;;;1477510;40;20452;-82
2021/05/20 03:35:52;;;;;;;250.38;62.88;;;;;;;;;;1471018;40;20530;-82
2021/05/20 03:36:54;;;;;;;490.85;96.78;;;;;;;;;;1471852;40;20425;-81
2021/05/20 03:37:56;;;;;;;331.75;75.38;;;;;;;;;;1470972;40;20493;-81
2021/05/20 03:38:57;;;;;;;267.17;65.55;;;;;;;;;;1471709;40;20810;-81
2021/05/20 03:39:59;;;;;;;167.05;54.47;;;;;;;;;;1470917;40;21496;-82
2021/05/20 03:41:02;;;;;;;253.80;66.35;;;;;;;;;;1473621;40;20422;-80
2021/05/20 03:42:04;;;;;;;150.52;55.40;;;;;;;;;;1471366;40;20455;-81
2021/05/20 03:43:06;;;;;;;147.15;54.78;;;;;;;;;;1472874;40;20422;-82
2021/05/20 03:44:08;;;;;;;117.15;51.97;;;;;;;;;;1470842;40;20450;-81
2021/05/20 03:45:10;;;;;;;142.93;53.75;;;;;;;;;;1472454;40;20418;-81
2021/05/20 03:46:12;;;;;;;132.65;49.22;;;;;;;;;;1470299;40;20426;-80
2021/05/20 03:47:14;;;;;;;138.40;53.40;;;;;;;;;;1472763;40;20421;-80
2021/05/20 03:48:15;;;;;;;102.68;49.33;;;;;;;;;;1471785;40;21638;-79
2021/05/20 03:49:17;;;;;;;153.00;58.85;;;;;;;;;;1471476;40;20515;-79
2021/05/20 03:50:18;;;;;;;76.53;47.72;;;;;;;;;;1476618;40;20427;-79
2021/05/20 03:51:20;;;;;;;74.72;46.38;;;;;;;;;;1471627;40;20674;-79
2021/05/20 03:52:22;;;;;;;82.72;50.08;;;;;;;;;;1471032;40;20437;-80
2021/05/20 03:53:29;;;;;;;66.97;45.92;;;;;;;;;;1477285;40;20408;-81
2021/05/20 03:54:31;;;;;;;64.75;44.63;;;;;;;;;;1476626;40;20519;-80
2021/05/20 03:55:32;;;;;;;68.10;47.03;;;;;;;;;;1477315;40;20468;-80
2021/05/20 03:56:34;;;;;;;63.58;44.03;;;;;;;;;;1476524;40;20457;-80
2021/05/20 03:57:36;;;;;;;64.15;45.80;;;;;;;;;;1477239;40;20424;-79
2021/05/20 03:58:37;;;;;;;60.67;42.00;;;;;;;;;;1476826;40;20416;-80
2021/05/20 03:59:39;;;;;;;52.50;38.72;;;;;;;;;;1476807;40;20472;-82
2021/05/20 04:00:40;;;;;;;50.58;37.90;;;;;;;;;;1477480;40;20420;-81
2021/05/20 04:01:42;;;;;;;47.97;36.45;;;;;;;;;;1477418;40;20507;-80
2021/05/20 04:02:44;;;;;;;50.25;38.83;;;;;;;;;;1476507;40;20468;-80
2021/05/20 04:03:45;;;;;;;47.28;36.45;;;;;;;;;;1476777;40;20404;-81
2021/05/20 04:04:47;;;;;;;45.60;35.92;;;;;;;;;;1471209;40;20437;-79
2021/05/20 04:05:56;;;;;;;43.05;35.30;;;;;;;;;;1468974;40;20463;-80
2021/05/20 04:06:58;;;;;;;44.63;34.53;;;;;;;;;;1467825;40;20421;-81
2021/05/20 04:08:00;;;;;;;42.47;33.75;;;;;;;;;;1472053;40;20438;-81
2021/05/20 04:09:02;;;;;;;44.22;34.67;;;;;;;;;;1471267;40;20799;-82
2021/05/20 04:10:05;;;;;;;43.90;35.10;;;;;;;;;;1464360;40;20414;-82
2021/05/20 04:11:06;;;;;;;41.65;32.47;;;;;;;;;;1464727;40;20456;-80
2021/05/20 04:12:08;;;;;;;46.00;34.45;;;;;;;;;;1471348;40;21792;-80
2021/05/20 04:13:11;;;;;;;46.03;34.67;;;;;;;;;;1471619;40;20445;-79
2021/05/20 04:14:12;;;;;;;44.83;35.03;;;;;;;;;;1471922;40;21086;-82
2021/05/20 04:15:14;;;;;;;40.72;32.58;;;;;;;;;;1475720;40;21115;-81
2021/05/20 04:16:16;;;;;;;37.20;32.38;;;;;;;;;;1471609;40;20509;-81
2021/05/20 04:17:17;;;;;;;39.35;31.13;;;;;;;;;;1471788;40;20619;-80
2021/05/20 04:18:19;;;;;;;39.60;31.90;;;;;;;;;;1467098;40;20637;-80
2021/05/20 04:19:21;;;;;;;40.33;31.70;;;;;;;;;;1466480;40;20442;-80
2021/05/20 04:20:23;;;;;;;40.17;31.08;;;;;;;;;;1471682;40;20423;-80
2021/05/20 04:21:25;;;;;;;37.08;31.02;;;;;;;;;;1471514;40;20430;-80
2021/05/20 04:22:27;;;;;;;33.78;29.80;;;;;;;;;;1477687;40;20419;-79
2021/05/20 04:23:28;;;;;;;34.30;29.75;;;;;;;;;;1476952;40;20523;-81
2021/05/20 04:24:30;;;;;;;34.22;28.60;;;;;;;;;;1471891;40;20441;-81
2021/05/20 04:25:31;;;;;;;34.40;29.23;;;;;;;;;;1468040;40;20429;-79
2021/05/20 04:26:33;;;;;;;31.85;28.42;;;;;;;;;;1470166;40;20424;-79
2021/05/20 04:27:35;;;;;;;30.45;26.83;;;;;;;;;;1477481;40;20424;-79
2021/05/20 04:28:36;;;;;;;32.30;27.83;;;;;;;;;;1467893;40;20439;-80
2021/05/20 04:29:38;;;;;;;32.20;27.50;;;;;;;;;;1466717;40;20525;-82
2021/05/20 04:30:40;;;;;;;34.03;28.77;;;;;;;;;;1477584;40;20903;-79
2021/05/20 04:31:41;;;;;;;34.33;27.73;;;;;;;;;;1476474;40;20482;-81
2021/05/20 04:32:43;;;;;;;31.48;27.38;;;;;;;;;;1471521;40;20489;-79
2021/05/20 04:33:44;;;;;;;32.35;27.48;;;;;;;;;;1471495;40;20444;-79
2021/05/20 04:34:46;;;;;;;33.28;27.75;;;;;;;;;;1472317;40;20489;-81
2021/05/20 04:35:48;;;;;;;32.33;25.45;;;;;;;;;;1467585;40;20471;-80
2021/05/20 04:36:49;;;;;;;30.90;25.25;;;;;;;;;;1467212;40;20773;-81
2021/05/20 04:37:51;;;;;;;28.45;23.42;;;;;;;;;;1467074;40;20425;-80
2021/05/20 04:38:53;;;;;;;25.75;23.00;;;;;;;;;;1463741;40;20425;-81
2021/05/20 04:39:54;;;;;;;26.98;23.15;;;;;;;;;;1463826;40;20411;-82
2021/05/20 04:40:56;;;;;;;28.13;23.50;;;;;;;;;;1470765;40;20453;-81
2021/05/20 04:41:57;;;;;;;28.90;23.52;;;;;;;;;;1468487;40;20453;-81
2021/05/20 04:42:59;;;;;;;25.73;21.63;;;;;;;;;;1477000;40;20472;-79
2021/05/20 04:44:01;;;;;;;26.52;21.58;;;;;;;;;;1477295;40;20809;-81
2021/05/20 04:45:03;;;;;;;23.73;20.83;;;;;;;;;;1477168;40;20405;-79
2021/05/20 04:46:05;;;;;;;24.73;21.27;;;;;;;;;;1477880;40;20420;-82
2021/05/20 04:47:06;;;;;;;24.15;20.45;;;;;;;;;;1471704;40;20410;-81
2021/05/20 04:48:08;;;;;;;24.50;21.45;;;;;;;;;;1468443;40;21687;-80
2021/05/20 04:49:12;;;;;;;21.88;19.58;;;;;;;;;;1471405;40;20812;-81
2021/05/20 04:50:15;;;;;;;20.38;18.20;;;;;;;;;;1472497;40;20410;-82
2021/05/20 04:51:18;;;;;;;19.70;17.58;;;;;;;;;;1467581;40;20505;-81
2021/05/20 04:52:20;;;;;;;19.92;17.35;;;;;;;;;;1470717;40;21049;-81
2021/05/20 04:53:24;;;;;;;18.98;16.98;;;;;;;;;;1476669;40;20451;-80
2021/05/20 04:54:26;;;;;;;19.63;17.63;;;;;;;;;;1470652;40;20428;-80
2021/05/20 04:55:27;;;;;;;20.75;18.02;;;;;;;;;;1467554;40;20436;-80
2021/05/20 04:56:29;;;;;;;22.50;18.75;;;;;;;;;;1470791;40;20422;-81
2021/05/20 04:57:30;;;;;;;22.75;19.42;;;;;;;;;;1470601;40;20831;-80
2021/05/20 04:58:32;;;;;;;22.00;19.55;;;;;;;;;;1471371;40;20528;-81
2021/05/20 04:59:34;;;;;;;22.13;19.75;;;;;;;;;;1472059;40;20571;-80
2021/05/20 05:00:35;;;;;;;22.25;19.33;;;;;;;;;;1472090;40;20441;-78
2021/05/20 05:01:37;;;;;;;22.77;19.48;;;;;;;;;;1477681;40;20443;-81
2021/05/20 05:02:39;;;;;;;23.83;21.35;;;;;;;;;;1476930;40;20467;-80
2021/05/20 05:03:41;;;;;;;23.80;21.10;;;;;;;;;;1471583;40;20412;-79
2021/05/20 05:04:43;;;;;;;25.45;22.48;;;;;;;;;;1467822;40;20736;-81
2021/05/20 05:05:44;;;;;;;23.58;21.00;;;;;;;;;;1472344;40;20442;-79
2021/05/20 05:06:46;;;;;;;25.48;22.23;;;;;;;;;;1478181;40;20454;-80
2021/05/20 05:07:47;;;;;;;26.38;21.90;;;;;;;;;;1478129;40;20428;-79
2021/05/20 05:08:49;;;;;;;27.00;22.55;;;;;;;;;;1476651;40;20412;-79
2021/05/20 05:09:50;;;;;;;26.25;21.35;;;;;;;;;;1478002;40;20420;-80
2021/05/20 05:10:52;;;;;;;27.83;23.30;;;;;;;;;;1478012;40;21627;-80
2021/05/20 05:11:54;;;;;;;26.17;22.80;;;;;;;;;;1477817;40;20459;-81
2021/05/20 05:12:55;;;;;;;25.95;21.75;;;;;;;;;;1478595;40;20462;-80
2021/05/20 05:13:57;;;;;;;27.13;23.52;;;;;;;;;;1478418;40;20514;-82
2021/05/20 05:14:59;;;;;;;24.95;22.23;;;;;;;;;;1472956;40;20433;-81
2021/05/20 05:16:00;;;;;;;25.30;22.63;;;;;;;;;;1472402;40;20426;-82
2021/05/20 05:17:02;;;;;;;26.05;22.70;;;;;;;;;;1469148;40;20441;-82
2021/05/20 05:18:04;;;;;;;30.60;25.75;;;;;;;;;;1469415;40;20603;-80
2021/05/20 05:19:05;;;;;;;31.25;26.48;;;;;;;;;;1472948;40;20564;-80
2021/05/20 05:20:08;;;;;;;29.70;26.50;;;;;;;;;;1479500;40;20412;-82
2021/05/20 05:21:09;;;;;;;30.80;27.45;;;;;;;;;;1477282;40;20790;-79
2021/05/20 05:22:11;;;;;;;30.48;27.17;;;;;;;;;;1478130;40;20413;-81
2021/05/20 05:23:12;;;;;;;30.65;27.33;;;;;;;;;;1469195;40;21208;-81
2021/05/20 05:24:14;;;;;;;33.78;28.63;;;;;;;;;;1469231;40;20498;-80
2021/05/20 05:25:16;;;;;;;32.15;28.65;;;;;;;;;;1473356;40;21122;-79
2021/05/20 05:26:17;;;;;;;32.10;28.70;;;;;;;;;;1467100;40;20426;-82
2021/05/20 05:27:19;;;;;;;30.52;27.23;;;;;;;;;;1469554;40;20408;-80
2021/05/20 05:28:21;;;;;;;28.48;25.38;;;;;;;;;;1468554;40;21069;-81
2021/05/20 05:29:23;;;;;;;31.60;28.40;;;;;;;;;;1472345;40;20437;-83
2021/05/20 05:30:25;;;;;;;32.75;28.70;;;;;;;;;;1478005;40;20490;-81
2021/05/20 05:31:27;;;;;;;31.23;27.88;;;;;;;;;;1478715;40;20449;-79
2021/05/20 05:32:28;;;;;;;30.77;27.50;;;;;;;;;;1478449;40;20591;-83
2021/05/20 05:33:30;;;;;;;32.00;28.60;;;;;;;;;;1477517;40;20552;-82
2021/05/20 05:34:32;;;;;;;33.78;30.25;;;;;;;;;;1472994;40;20412;-82
2021/05/20 05:35:33;;;;;;;32.78;29.02;;;;;;;;;;1472603;40;20436;-81
2021/05/20 05:36:35;;;;;;;32.78;28.50;;;;;;;;;;1476684;40;20844;-80
2021/05/20 05:37:37;;;;;;;32.25;28.67;;;;;;;;;;1477359;40;20481;-80
2021/05/20 05:38:38;;;;;;;34.70;31.10;;;;;;;;;;1477175;40;20424;-80
2021/05/20 05:39:40;;;;;;;35.13;31.52;;;;;;;;;;1481156;40;20442;-80
2021/05/20 05:40:42;;;;;;;36.72;32.75;;;;;;;;;;1479902;40;20462;-81
2021/05/20 05:41:47;;;;;;;35.20;31.52;;;;;;;;;;1479263;40;20397;-79
2021/05/20 05:42:48;;;;;;;36.33;32.60;;;;;;;;;;1473665;40;20528;-80
2021/05/20 05:43:50;;;;;;;37.83;32.50;;;;;;;;;;1469138;40;20442;-82
2021/05/20 05:44:51;;;;;;;38.60;34.40;;;;;;;;;;1473489;40;20547;-80
2021/05/20 05:45:53;;;;;;;37.60;33.53;;;;;;;;;;1477704;40;20549;-81
2021/05/20 05:46:54;;;;;;;39.78;35.72;;;;;;;;;;1476446;40;20441;-82
2021/05/20 05:47:56;;;;;;;38.28;34.33;;;;;;;;;;1467493;40;21071;-80
2021/05/20 05:49:09;;;;;;;37.05;32.97;;;;;;;;;;1467801;40;20398;-81
2021/05/20 05:50:13;;;;;;;38.50;34.30;;;;;;;;;;1476524;40;20417;-80
2021/05/20 05:51:18;;;;;;;38.35;34.17;;;;;;;;;;1471832;40;20428;-81
2021/05/20 05:52:21;;;;;;;39.63;35.22;;;;;;;;;;1463833;40;20538;-81
2021/05/20 05:53:24;;;;;;;40.63;36.23;;;;;;;;;;1468209;40;20634;-80
2021/05/20 05:54:25;;;;;;;41.88;36.55;;;;;;;;;;1477225;40;20451;-81
2021/05/20 05:55:27;;;;;;;43.15;38.25;;;;;;;;;;1471732;40;20436;-80
2021/05/20 05:56:29;;;;;;;43.50;37.58;;;;;;;;;;1467500;40;21240;-81
2021/05/20 05:57:48;;;;;;;45.05;36.50;;;;;;;;;;1469902;40;20436;-79
2021/05/20 05:58:49;;;;;;;44.47;37.92;;;;;;;;;;1470648;40;21720;-79
2021/05/20 05:59:51;;;;;;;43.50;37.90;;;;;;;;;;1467807;40;21341;-80
2021/05/20 06:00:53;;;;;;;41.00;36.58;;;;;;;;;;1472226;40;21452;-81
2021/05/20 06:01:55;;;;;;;41.95;37.38;;;;;;;;;;1477041;40;20401;-81
2021/05/20 06:02:57;;;;;;;41.88;37.17;;;;;;;;;;1467765;40;20558;-81